Terminal Aerodrome Forecast
Issued by NWS Lubbock, TX

Home | Current Version | Previous Version | Text Only | Print | Product List | Glossary On
Versions: 1 2 3 4 5 6 7 8 9 10 11 12 13
861
FTUS44 KLUB 282332
TAFLBB
TAF
KLBB 282332Z 2900/2924 16019G29KT P6SM SCT050 SCT250
      TEMPO 2907/2910 4SM -TSRA BKN040CB
     FM291200 24018G26KT P6SM FEW300=

USA.gov is the U.S. government's official web portal to all federal, state and local government web resources and services.